Terminal Aerodrome Forecast
Issued by NWS

Home | Current Version | Previous Version | Text Only | Print | Product List | Glossary On
Versions: 1 2 3 4 5 6 7 8 9 10 11 12 13 14 15 16 17 18 19 20
000
FTUS43 KLSX 291730
TAFCPS
TAF
KCPS 291730Z 2918/3018 36010KT P6SM SCT030 BKN150
     FM300100 32003KT P6SM SCT150
     FM301500 33006KT P6SM SKC=

USA.gov is the U.S. government's official web portal to all federal, state and local government web resources and services.